Terminal Aerodrome Forecast
Issued by NWS

Home | Current Version | Previous Version | Text Only | Print | Product List | Glossary On
Versions: 1 2 3 4 5 6 7 8 9 10 11 12 13 14 15 16 17 18 19 20
099
FTUS46 KSGX 192000 AAA
TAFCRQ
TAF AMD
KCRQ 192000Z 1920/2018 23007KT P6SM BKN013
     FM192130 25009KT P6SM SCT016
     FM200100 VRB04KT P6SM OVC013=

USA.gov is the U.S. government's official web portal to all federal, state and local government web resources and services.